TimeCST,TemperatureF,Dew PointF,Humidity,Sea Level PressureIn,VisibilityMPH,Wind Direction,Wind SpeedMPH,Gust SpeedMPH,PrecipitationIn,Events,Conditions,WindDirDegrees,DateUTC
12:15 AM,50.0,48.2,94,29.81,10.0,NNW,12.7,-,N/A,,Overcast,340,2012-12-10 06:15:00
12:35 AM,50.0,48.2,94,29.81,10.0,NNW,15.0,20.7,N/A,,Overcast,340,2012-12-10 06:35:00
12:55 AM,48.2,46.4,93,29.80,10.0,NNW,12.7,18.4,N/A,,Overcast,340,2012-12-10 06:55:00
1:15 AM,48.2,46.4,93,29.80,8.0,NNW,15.0,19.6,N/A,,Overcast,340,2012-12-10 07:15:00
1:55 AM,46.4,44.6,93,29.81,5.0,NNW,15.0,19.6,N/A,,Overcast,340,2012-12-10 07:55:00
2:15 AM,46.4,44.6,93,29.81,7.0,NNW,17.3,21.9,N/A,,Overcast,340,2012-12-10 08:15:00
2:35 AM,46.4,44.6,93,29.80,5.0,North,15.0,19.6,N/A,,Overcast,350,2012-12-10 08:35:00
2:55 AM,46.4,44.6,93,29.81,4.0,NNW,11.5,-,N/A,,Overcast,340,2012-12-10 08:55:00
3:15 AM,44.6,44.6,100,29.81,4.0,North,16.1,20.7,N/A,,Overcast,360,2012-12-10 09:15:00
3:35 AM,44.6,42.8,93,29.81,5.0,NNE,13.8,-,N/A,,Overcast,20,2012-12-10 09:35:00
3:55 AM,44.6,42.8,93,29.81,7.0,North,12.7,16.1,N/A,,Overcast,360,2012-12-10 09:55:00
4:15 AM,44.6,41.0,87,29.81,10.0,North,12.7,17.3,N/A,,Overcast,360,2012-12-10 10:15:00
4:35 AM,44.6,39.2,81,29.81,10.0,North,9.2,-,N/A,,Overcast,360,2012-12-10 10:35:00
4:55 AM,44.6,41.0,87,29.81,10.0,North,10.4,-,N/A,,Overcast,350,2012-12-10 10:55:00
5:15 AM,44.6,37.4,76,29.81,10.0,North,10.4,-,N/A,,Overcast,360,2012-12-10 11:15:00
5:55 AM,44.6,37.4,76,29.83,10.0,NNW,8.1,-,N/A,,Overcast,340,2012-12-10 11:55:00
6:15 AM,42.8,37.4,81,29.84,10.0,North,9.2,-,N/A,,Overcast,350,2012-12-10 12:15:00
6:35 AM,42.8,37.4,81,29.82,10.0,North,6.9,-,N/A,,Overcast,360,2012-12-10 12:35:00
6:55 AM,42.8,37.4,81,29.81,10.0,NE,6.9,-,N/A,,Overcast,40,2012-12-10 12:55:00
7:15 AM,42.8,37.4,81,29.82,10.0,NNW,9.2,-,N/A,,Overcast,340,2012-12-10 13:15:00
7:35 AM,42.8,37.4,81,29.83,10.0,NNW,10.4,-,N/A,,Overcast,340,2012-12-10 13:35:00
7:55 AM,41.0,37.4,87,29.83,10.0,NNW,11.5,-,N/A,,Overcast,330,2012-12-10 13:55:00
8:15 AM,41.0,35.6,81,29.85,10.0,NW,13.8,-,N/A,,Overcast,320,2012-12-10 14:15:00
8:35 AM,39.2,32.0,75,29.85,10.0,NNW,11.5,-,N/A,,Overcast,340,2012-12-10 14:35:00
8:55 AM,39.2,32.0,75,29.87,10.0,NNW,16.1,21.9,N/A,,Overcast,340,2012-12-10 14:55:00
9:35 AM,35.6,30.2,81,29.90,10.0,NNW,17.3,21.9,N/A,,Overcast,330,2012-12-10 15:35:00
9:55 AM,33.8,28.4,81,29.91,10.0,NNW,18.4,21.9,N/A,,Overcast,330,2012-12-10 15:55:00
10:15 AM,33.8,26.6,75,29.91,10.0,NNW,13.8,20.7,N/A,,Overcast,330,2012-12-10 16:15:00
10:55 AM,33.8,26.6,75,29.89,10.0,North,12.7,-,N/A,,Overcast,350,2012-12-10 16:55:00
11:15 AM,33.8,26.6,75,29.88,10.0,NNW,12.7,-,N/A,,Overcast,340,2012-12-10 17:15:00
11:35 AM,33.8,26.6,75,29.88,10.0,NNW,13.8,-,N/A,,Mostly Cloudy,330,2012-12-10 17:35:00
11:55 AM,33.8,28.4,81,29.89,10.0,NW,13.8,-,N/A,,Overcast,320,2012-12-10 17:55:00
12:15 PM,33.8,26.6,75,29.89,10.0,NNW,16.1,-,N/A,,Overcast,330,2012-12-10 18:15:00
12:35 PM,35.6,26.6,70,29.88,10.0,NNW,13.8,19.6,N/A,,Overcast,330,2012-12-10 18:35:00
12:55 PM,35.6,26.6,70,29.88,10.0,NNW,10.4,-,N/A,,Overcast,330,2012-12-10 18:55:00
1:15 PM,33.8,26.6,75,29.88,10.0,NNW,12.7,-,N/A,,Overcast,330,2012-12-10 19:15:00
1:55 PM,33.8,26.6,75,29.88,10.0,NNW,11.5,-,N/A,,Overcast,340,2012-12-10 19:55:00
2:15 PM,33.8,26.6,75,29.88,10.0,NNW,9.2,-,N/A,,Overcast,340,2012-12-10 20:15:00
2:35 PM,33.8,26.6,75,29.87,10.0,North,10.4,-,N/A,,Overcast,360,2012-12-10 20:35:00
2:55 PM,33.8,26.6,75,29.90,10.0,NW,10.4,-,N/A,,Overcast,320,2012-12-10 20:55:00
3:15 PM,33.8,26.6,75,29.90,10.0,NW,12.7,-,N/A,,Overcast,320,2012-12-10 21:15:00
3:35 PM,32.0,26.6,80,29.92,10.0,NNW,10.4,-,N/A,,Overcast,340,2012-12-10 21:35:00
3:55 PM,32.0,26.6,80,29.93,10.0,NNW,13.8,19.6,N/A,,Overcast,330,2012-12-10 21:55:00
4:15 PM,32.0,24.8,75,29.94,10.0,NW,12.7,-,N/A,,Overcast,320,2012-12-10 22:15:00
4:35 PM,32.0,24.8,75,29.94,10.0,NW,12.7,-,N/A,,Overcast,310,2012-12-10 22:35:00
4:55 PM,32.0,24.8,75,29.96,10.0,NW,10.4,-,N/A,,Overcast,320,2012-12-10 22:55:00
5:15 PM,32.0,24.8,75,29.97,10.0,NNW,9.2,-,N/A,,Overcast,340,2012-12-10 23:15:00
5:35 PM,32.0,24.8,75,29.98,10.0,NNW,12.7,17.3,N/A,,Overcast,330,2012-12-10 23:35:00
5:55 PM,32.0,24.8,75,29.99,10.0,NNW,9.2,-,N/A,,Overcast,340,2012-12-10 23:55:00
6:15 PM,32.0,24.8,75,30.00,10.0,NNW,9.2,-,N/A,,Overcast,330,2012-12-11 00:15:00
6:35 PM,32.0,24.8,75,30.00,10.0,NNW,10.4,16.1,N/A,,Overcast,330,2012-12-11 00:35:00
6:55 PM,32.0,24.8,75,30.01,10.0,NNW,11.5,16.1,N/A,,Overcast,340,2012-12-11 00:55:00
7:15 PM,32.0,24.8,75,30.02,10.0,NNW,12.7,18.4,N/A,,Overcast,340,2012-12-11 01:15:00
7:35 PM,32.0,24.8,75,30.02,10.0,NNW,11.5,-,N/A,,Overcast,340,2012-12-11 01:35:00
7:55 PM,32.0,24.8,75,30.03,10.0,North,9.2,-,N/A,,Overcast,350,2012-12-11 01:55:00
8:15 PM,32.0,24.8,75,30.03,10.0,North,5.8,-,N/A,,Overcast,350,2012-12-11 02:15:00
8:35 PM,32.0,24.8,75,30.04,10.0,North,5.8,-,N/A,,Overcast,350,2012-12-11 02:35:00
8:55 PM,32.0,24.8,75,30.04,10.0,NNW,9.2,-,N/A,,Overcast,340,2012-12-11 02:55:00
9:15 PM,32.0,24.8,75,30.04,10.0,North,11.5,-,N/A,,Overcast,350,2012-12-11 03:15:00
9:35 PM,32.0,23.0,69,30.04,10.0,North,8.1,-,N/A,,Overcast,350,2012-12-11 03:35:00
9:55 PM,32.0,23.0,69,30.04,10.0,North,8.1,-,N/A,,Overcast,360,2012-12-11 03:55:00
10:15 PM,32.0,23.0,69,30.05,10.0,North,6.9,-,N/A,,Overcast,350,2012-12-11 04:15:00
10:35 PM,32.0,23.0,69,30.06,10.0,North,6.9,-,N/A,,Overcast,350,2012-12-11 04:35:00
10:55 PM,32.0,23.0,69,30.07,10.0,North,8.1,-,N/A,,Overcast,10,2012-12-11 04:55:00
11:15 PM,32.0,23.0,69,30.07,10.0,North,9.2,-,N/A,,Overcast,350,2012-12-11 05:15:00
11:55 PM,32.0,23.0,69,30.08,10.0,North,6.9,-,N/A,,Overcast,10,2012-12-11 05:55:00